Time;durP1;ratioP1;P1;durP2;ratioP2;P2;SDS_P1;SDS_P2;PMS_P1;PMS_P2;Temp;Humidity;BMP_temperature;BMP_pressure;BME280_temperature;BME280_humidity;BME280_pressure;Samples;Min_cycle;Max_cycle;Signal;HPM_P1;HPM_P2
2021/08/26 00:08:07;;;;;;;11.18;7.38;;;12.80;99.90;;;;;;6159725;28;20030;-83
2021/08/26 00:11:08;;;;;;;8.55;6.95;;;12.90;99.90;;;;;;6174539;28;20101;-80
2021/08/26 00:14:09;;;;;;;12.18;7.43;;;12.80;99.90;;;;;;6174297;28;20077;-83
2021/08/26 00:17:10;;;;;;;8.60;6.97;;;12.60;99.90;;;;;;6174340;28;20041;-79
2021/08/26 00:20:10;;;;;;;9.68;7.22;;;13.00;99.90;;;;;;6157008;28;20050;-79
2021/08/26 00:23:11;;;;;;;9.23;7.03;;;12.90;99.90;;;;;;6176840;28;20039;-79
2021/08/26 00:26:12;;;;;;;9.73;7.45;;;12.90;99.90;;;;;;6178627;28;20027;-83
2021/08/26 00:29:12;;;;;;;10.18;8.10;;;13.00;99.90;;;;;;6178591;28;20449;-80
2021/08/26 00:32:13;;;;;;;10.30;7.72;;;12.90;99.90;;;;;;6178565;28;20089;-82
2021/08/26 00:35:13;;;;;;;10.13;7.45;;;12.90;99.90;;;;;;6161251;28;20027;-81
2021/08/26 00:38:14;;;;;;;10.55;7.93;;;13.00;99.90;;;;;;6178392;28;20046;-79
2021/08/26 00:41:21;;;;;;;11.95;7.45;;;12.90;99.90;;;;;;6178227;28;20035;-79
2021/08/26 00:44:21;;;;;;;8.55;7.28;;;12.80;99.90;;;;;;6178245;28;20126;-83
2021/08/26 00:47:24;;;;;;;9.00;7.22;;;12.90;99.90;;;;;;6178141;28;20350;-82
2021/08/26 00:50:24;;;;;;;;;;;13.10;99.90;;;;;;6161571;28;20022;-80
2021/08/26 00:53:25;;;;;;;11.77;7.72;;;13.00;99.90;;;;;;6178026;28;19948;-83
2021/08/26 00:56:26;;;;;;;10.05;7.63;;;13.20;99.90;;;;;;6160839;28;20105;-83
2021/08/26 00:59:26;;;;;;;8.57;7.30;;;13.10;99.90;;;;;;6177885;28;20453;-79
2021/08/26 01:03:00;;;;;;;10.10;7.45;;;13.20;99.90;;;;;;6160752;28;20457;-82
2021/08/26 01:06:02;;;;;;;11.10;7.50;;;13.10;99.90;;;;;;6177944;28;20380;-82
2021/08/26 01:09:08;;;;;;;;;;;13.10;99.90;;;;;;6161140;28;20441;-83
2021/08/26 01:12:17;;;;;;;12.10;8.05;;;13.00;99.90;;;;;;6177551;28;20256;-82
2021/08/26 01:15:17;;;;;;;8.52;6.97;;;12.90;99.90;;;;;;6177709;28;20026;-79
2021/08/26 01:18:18;;;;;;;11.80;7.03;;;13.00;99.90;;;;;;6177404;28;20078;-82
2021/08/26 01:21:20;;;;;;;9.63;7.10;;;12.90;99.90;;;;;;6160222;28;20034;-83
2021/08/26 01:24:20;;;;;;;9.38;7.55;;;12.80;99.90;;;;;;6177654;28;20027;-79
2021/08/26 01:27:22;;;;;;;9.63;7.15;;;12.80;99.90;;;;;;6144082;28;20081;-79
2021/08/26 01:30:24;;;;;;;10.07;7.90;;;12.80;99.90;;;;;;6160314;28;20516;-78
2021/08/26 01:33:24;;;;;;;10.57;7.57;;;12.70;99.90;;;;;;6176899;28;20065;-82
2021/08/26 01:36:32;;;;;;;10.45;7.63;;;12.70;99.90;;;;;;6143962;28;20030;-81
2021/08/26 01:39:32;;;;;;;9.88;7.82;;;12.80;99.90;;;;;;6176581;28;20055;-79
2021/08/26 01:42:34;;;;;;;11.65;7.85;;;12.70;99.90;;;;;;6177020;28;20043;-79
2021/08/26 01:45:34;;;;;;;9.75;7.90;;;12.80;99.90;;;;;;6177095;28;20019;-83
2021/08/26 01:48:35;;;;;;;10.27;7.82;;;12.80;99.90;;;;;;6177090;28;20034;-78
2021/08/26 01:51:36;;;;;;;9.40;7.43;;;12.80;99.90;;;;;;6177007;28;20019;-79
2021/08/26 01:54:37;;;;;;;8.48;7.13;;;12.80;99.90;;;;;;6177046;28;20031;-79
2021/08/26 01:57:37;;;;;;;9.65;8.00;;;12.50;99.90;;;;;;6176648;28;20034;-79
2021/08/26 02:00:38;;;;;;;12.68;8.18;;;12.60;99.90;;;;;;6176415;28;20027;-82
2021/08/26 02:03:39;;;;;;;10.52;7.97;;;12.70;99.90;;;;;;6143535;28;20035;-79
2021/08/26 02:06:40;;;;;;;10.93;7.65;;;12.70;99.90;;;;;;6159011;28;20042;-80
2021/08/26 02:09:40;;;;;;;8.98;7.28;;;12.60;99.90;;;;;;6159202;28;20095;-82
2021/08/26 02:12:41;;;;;;;10.07;7.25;;;12.80;99.90;;;;;;6176225;28;20122;-79
2021/08/26 02:15:41;;;;;;;10.13;7.25;;;12.50;99.90;;;;;;6176090;28;20059;-81
2021/08/26 02:18:42;;;;;;;11.07;7.38;;;12.40;99.90;;;;;;6176016;28;20030;-84
2021/08/26 02:21:43;;;;;;;9.65;7.28;;;12.40;99.90;;;;;;6159054;28;20077;-81
2021/08/26 02:24:44;;;;;;;9.85;7.45;;;12.50;99.90;;;;;;6176226;28;20397;-82
2021/08/26 02:27:44;;;;;;;9.57;7.85;;;12.40;99.90;;;;;;6176381;28;20035;-78
2021/08/26 02:30:45;;;;;;;7.88;7.00;;;12.40;99.90;;;;;;6175918;28;20377;-84
2021/08/26 02:33:45;;;;;;;11.27;7.32;;;12.30;99.90;;;;;;6175819;28;20018;-82
2021/08/26 02:36:46;;;;;;;8.93;7.22;;;12.30;99.90;;;;;;6176028;28;20081;-80
2021/08/26 02:39:47;;;;;;;10.18;7.38;;;12.30;99.90;;;;;;6142192;28;20438;-84
2021/08/26 02:42:48;;;;;;;10.15;7.55;;;;;;;;;;6176157;28;20031;-79
2021/08/26 02:45:49;;;;;;;11.68;7.43;;;12.10;99.90;;;;;;6175120;28;20377;-80
2021/08/26 02:48:49;;;;;;;10.27;7.50;;;12.30;99.90;;;;;;6158225;28;20030;-82
2021/08/26 02:51:50;;;;;;;9.38;7.53;;;12.10;99.90;;;;;;6175450;28;20081;-82
2021/08/26 02:54:50;;;;;;;9.30;7.80;;;12.30;99.90;;;;;;6142346;28;20380;-81
2021/08/26 02:57:51;;;;;;;11.60;8.43;;;12.20;99.90;;;;;;6175339;28;20023;-79
2021/08/26 03:00:52;;;;;;;11.07;7.70;;;12.10;99.90;;;;;;6158285;28;20073;-81
2021/08/26 03:03:52;;;;;;;9.63;7.60;;;12.10;99.90;;;;;;6175370;28;20034;-81
2021/08/26 03:06:53;;;;;;;9.15;7.82;;;12.20;99.90;;;;;;6175394;28;20342;-79
2021/08/26 03:09:53;;;;;;;9.40;7.25;;;12.10;99.90;;;;;;6175138;28;20030;-79
2021/08/26 03:12:54;;;;;;;9.15;7.55;;;12.50;99.90;;;;;;6175280;28;20050;-82
2021/08/26 03:15:55;;;;;;;10.40;8.20;;;12.20;99.90;;;;;;6158001;28;20487;-80
2021/08/26 03:18:55;;;;;;;9.73;7.93;;;12.20;99.90;;;;;;6174948;28;20019;-80
2021/08/26 03:21:56;;;;;;;10.38;8.68;;;12.50;99.90;;;;;;6141720;28;20018;-78
2021/08/26 03:24:56;;;;;;;11.23;8.20;;;12.20;99.90;;;;;;6174754;28;20470;-79
2021/08/26 03:27:57;;;;;;;10.70;7.70;;;12.20;99.90;;;;;;6157833;28;20045;-84
2021/08/26 03:30:57;;;;;;;9.30;7.50;;;12.00;99.90;;;;;;6157761;28;20046;-84
2021/08/26 03:33:58;;;;;;;11.55;8.70;;;12.00;99.90;;;;;;6157387;28;20022;-80
2021/08/26 03:36:59;;;;;;;10.73;8.25;;;12.00;99.90;;;;;;6157605;28;20888;-78
2021/08/26 03:39:59;;;;;;;11.77;8.63;;;12.30;99.90;;;;;;6157310;28;20146;-83
2021/08/26 03:43:00;;;;;;;12.20;8.20;;;12.00;99.90;;;;;;6141829;28;20450;-79
2021/08/26 03:46:00;;;;;;;12.52;8.85;;;12.30;99.90;;;;;;6174558;28;20074;-80
2021/08/26 03:49:01;;;;;;;13.38;8.90;;;11.90;99.90;;;;;;6157202;28;20094;-81
2021/08/26 03:52:02;;;;;;;11.35;8.77;;;11.80;99.90;;;;;;6174532;28;20035;-79
2021/08/26 03:55:03;;;;;;;9.57;7.82;;;11.70;99.90;;;;;;6174416;28;20019;-79
2021/08/26 03:58:04;;;;;;;10.52;7.95;;;11.70;99.90;;;;;;6160176;28;20027;-85
2021/08/26 04:01:05;;;;;;;10.93;7.93;;;;;;;;;;6161940;28;20027;-82
2021/08/26 04:04:06;;;;;;;8.93;7.55;;;11.50;99.90;;;;;;6179435;28;20114;-84
2021/08/26 04:07:06;;;;;;;11.82;8.32;;;11.50;99.90;;;;;;6178964;28;20026;-82
2021/08/26 04:10:07;;;;;;;10.75;7.85;;;11.40;99.90;;;;;;6179225;28;20023;-81
2021/08/26 04:13:08;;;;;;;9.80;8.30;;;11.40;99.90;;;;;;6161702;28;20400;-79
2021/08/26 04:16:09;;;;;;;11.25;7.78;;;;;;;;;;6179410;28;20034;-80
2021/08/26 04:19:09;;;;;;;10.82;8.40;;;11.20;99.90;;;;;;6179360;28;20109;-80
2021/08/26 04:22:10;;;;;;;11.05;8.70;;;11.30;99.90;;;;;;6179049;28;20033;-79
2021/08/26 04:25:11;;;;;;;11.95;9.05;;;11.10;99.90;;;;;;6161537;28;20106;-83
2021/08/26 04:28:11;;;;;;;10.57;8.57;;;11.30;99.90;;;;;;6161391;28;20085;-79
2021/08/26 04:31:12;;;;;;;12.77;8.25;;;;;;;;;;6178913;28;20432;-80
2021/08/26 04:34:13;;;;;;;12.25;9.23;;;11.30;99.90;;;;;;6178521;28;20043;-78
2021/08/26 04:37:13;;;;;;;10.50;8.02;;;11.60;99.90;;;;;;6178411;28;20093;-81
2021/08/26 04:40:15;;;;;;;10.77;8.30;;;11.20;99.90;;;;;;6178701;28;20043;-80
2021/08/26 04:43:15;;;;;;;11.23;8.40;;;11.00;99.90;;;;;;6178208;28;20058;-83
2021/08/26 04:46:16;;;;;;;10.45;8.15;;;11.30;99.90;;;;;;6178215;28;20022;-84
2021/08/26 04:49:17;;;;;;;13.18;8.45;;;11.20;99.90;;;;;;6178080;28;20027;-83
2021/08/26 04:52:17;;;;;;;11.13;7.90;;;11.20;99.90;;;;;;6178405;28;20065;-82
2021/08/26 04:55:18;;;;;;;10.00;7.93;;;11.20;99.90;;;;;;6160926;28;20616;-78
2021/08/26 04:58:19;;;;;;;12.50;7.88;;;11.30;99.90;;;;;;6178290;28;20026;-83
2021/08/26 05:01:19;;;;;;;13.02;8.23;;;11.30;99.90;;;;;;6177938;28;20026;-84
2021/08/26 05:04:25;;;;;;;13.48;8.15;;;11.30;99.90;;;;;;6178020;28;20078;-81
2021/08/26 05:07:26;;;;;;;11.10;8.27;;;11.40;99.90;;;;;;6177333;28;20027;-79
2021/08/26 05:10:27;;;;;;;10.40;8.35;;;11.40;99.90;;;;;;6160633;28;20031;-83
2021/08/26 05:13:27;;;;;;;10.93;8.40;;;11.40;99.90;;;;;;6160345;28;20029;-84
2021/08/26 05:16:28;;;;;;;12.65;8.52;;;11.40;99.90;;;;;;6177770;28;20050;-80
2021/08/26 05:19:28;;;;;;;10.18;8.73;;;11.40;99.90;;;;;;6177626;28;20377;-81
2021/08/26 05:22:29;;;;;;;10.70;8.50;;;11.30;99.90;;;;;;6177891;28;20073;-79
2021/08/26 05:25:30;;;;;;;12.40;8.88;;;;;;;;;;6177285;28;20037;-79
2021/08/26 05:28:30;;;;;;;10.95;9.02;;;11.40;99.90;;;;;;6177197;28;20114;-79
2021/08/26 05:31:31;;;;;;;11.05;9.02;;;11.50;99.90;;;;;;6177712;28;20035;-79
2021/08/26 05:34:31;;;;;;;11.50;8.80;;;12.30;99.90;;;;;;6176956;28;20065;-80
2021/08/26 05:37:32;;;;;;;12.13;8.88;;;11.70;99.90;;;;;;6159731;28;20086;-82
2021/08/26 05:40:33;;;;;;;10.98;7.88;;;11.80;99.90;;;;;;6177030;28;20031;-79
2021/08/26 05:43:33;;;;;;;10.48;8.02;;;12.00;99.90;;;;;;6159617;28;20038;-82
2021/08/26 05:46:34;;;;;;;10.25;7.85;;;12.50;99.90;;;;;;6177185;28;20061;-79
2021/08/26 05:49:35;;;;;;;10.15;7.57;;;;;;;;;;6177159;28;20470;-83
2021/08/26 05:52:35;;;;;;;9.23;7.70;;;13.80;99.90;;;;;;6176900;28;20042;-80
2021/08/26 05:55:36;;;;;;;11.13;7.97;;;13.90;99.90;;;;;;6176655;28;20019;-83
2021/08/26 05:58:36;;;;;;;9.68;8.07;;;13.40;99.90;;;;;;6159678;28;20029;-82
2021/08/26 06:01:37;;;;;;;11.88;7.88;;;13.60;99.90;;;;;;6159111;28;20097;-79
2021/08/26 06:04:37;;;;;;;9.23;7.97;;;13.50;99.90;;;;;;6176707;28;20039;-81
2021/08/26 06:07:38;;;;;;;12.43;8.30;;;13.40;99.90;;;;;;6159388;28;20031;-79
2021/08/26 06:10:39;;;;;;;11.48;8.10;;;13.50;99.90;;;;;;6158901;28;20019;-83
2021/08/26 06:13:39;;;;;;;10.25;8.45;;;13.60;99.90;;;;;;6176567;28;20030;-79
2021/08/26 06:16:40;;;;;;;11.90;8.30;;;13.60;99.90;;;;;;6176402;28;20109;-78
2021/08/26 06:19:40;;;;;;;10.13;7.70;;;13.80;99.90;;;;;;6175596;28;20133;-83
2021/08/26 06:22:41;;;;;;;9.52;8.30;;;14.10;99.90;;;;;;6158994;28;20058;-83
2021/08/26 06:25:42;;;;;;;10.82;7.90;;;14.20;99.90;;;;;;6159101;28;20037;-79
2021/08/26 06:28:43;;;;;;;10.65;7.25;;;14.30;99.90;;;;;;6158623;28;20026;-79
2021/08/26 06:31:44;;;;;;;9.35;8.35;;;14.40;99.90;;;;;;6176142;28;20513;-79
2021/08/26 06:34:45;;;;;;;10.40;7.73;;;14.30;99.90;;;;;;6175907;28;20037;-79
2021/08/26 06:37:45;;;;;;;12.75;7.65;;;14.30;99.90;;;;;;6158329;28;20043;-79
2021/08/26 06:40:46;;;;;;;9.43;7.40;;;14.40;99.90;;;;;;6176199;28;20436;-78
2021/08/26 06:43:47;;;;;;;11.52;7.63;;;14.50;99.90;;;;;;6175456;28;20038;-78
2021/08/26 06:46:47;;;;;;;8.32;7.28;;;14.40;99.90;;;;;;6158359;28;20445;-79
2021/08/26 06:49:48;;;;;;;10.13;7.63;;;14.50;99.90;;;;;;6142390;28;20034;-82
2021/08/26 06:52:49;;;;;;;7.63;6.72;;;14.70;99.90;;;;;;6175676;28;20308;-82
2021/08/26 06:55:50;;;;;;;9.13;7.40;;;14.80;99.90;;;;;;6175546;28;20479;-80
2021/08/26 06:58:50;;;;;;;10.75;7.50;;;15.20;99.90;;;;;;6175417;28;20022;-82
2021/08/26 07:01:51;;;;;;;8.60;7.22;;;15.90;99.90;;;;;;6175306;28;20105;-79
2021/08/26 07:04:51;;;;;;;11.23;7.60;;;16.70;99.90;;;;;;6175054;28;20042;-79
2021/08/26 07:07:52;;;;;;;9.57;7.45;;;17.30;99.90;;;;;;6158103;28;20019;-85
2021/08/26 07:10:53;;;;;;;9.70;7.25;;;18.20;99.90;;;;;;6175116;28;20027;-83
2021/08/26 07:13:53;;;;;;;9.10;7.45;;;19.00;99.90;;;;;;6174903;28;20480;-82
2021/08/26 07:16:54;;;;;;;9.93;6.85;;;19.10;99.90;;;;;;6174848;28;20027;-79
2021/08/26 07:19:54;;;;;;;11.40;6.93;;;19.00;99.90;;;;;;6175133;28;20023;-80
2021/08/26 07:22:55;;;;;;;8.88;6.45;;;19.20;99.90;;;;;;6157413;28;20026;-82
2021/08/26 07:25:55;;;;;;;7.95;6.03;;;20.10;99.90;;;;;;6174794;28;20023;-79
2021/08/26 07:28:56;;;;;;;8.35;6.90;;;21.00;98.90;;;;;;6174767;28;20481;-85
2021/08/26 07:31:56;;;;;;;9.10;7.50;;;21.90;96.00;;;;;;6157336;28;20019;-79
2021/08/26 07:34:57;;;;;;;8.70;7.32;;;22.60;94.70;;;;;;6175414;28;20049;-81
2021/08/26 07:37:58;;;;;;;10.73;7.68;;;23.10;94.20;;;;;;6174862;28;20093;-81
2021/08/26 07:40:58;;;;;;;10.98;8.50;;;23.80;99.50;;;;;;6173558;28;20362;-83
2021/08/26 07:43:59;;;;;;;13.07;8.18;;;23.60;92.20;;;;;;6174846;28;20461;-81
2021/08/26 07:46:59;;;;;;;10.25;7.82;;;24.30;91.20;;;;;;6141594;28;20377;-82
2021/08/26 07:50:00;;;;;;;8.93;7.22;;;24.80;90.00;;;;;;6157063;28;20126;-79
2021/08/26 07:53:01;;;;;;;8.82;7.05;;;24.70;87.50;;;;;;6174796;28;20034;-85
2021/08/26 07:56:01;;;;;;;9.68;7.00;;;25.30;96.10;;;;;;6157396;28;20078;-81
2021/08/26 07:59:03;;;;;;;8.73;6.70;;;25.40;87.20;;;;;;6174449;28;20454;-82
2021/08/26 08:02:03;;;;;;;9.20;6.97;;;25.80;81.30;;;;;;6157492;28;20030;-80
2021/08/26 08:05:04;;;;;;;8.07;6.55;;;25.90;80.70;;;;;;6174304;28;20443;-83
2021/08/26 08:08:05;;;;;;;10.27;7.85;;;26.60;80.20;;;;;;6157104;28;20022;-84
2021/08/26 08:11:05;;;;;;;7.63;6.83;;;27.00;77.90;;;;;;6174404;28;20059;-80
2021/08/26 08:14:06;;;;;;;8.10;6.87;;;27.10;77.00;;;;;;6157334;28;20110;-83
2021/08/26 08:17:07;;;;;;;7.40;6.67;;;;;;;;;;6156995;28;20022;-80
2021/08/26 08:20:09;;;;;;;8.23;6.80;;;27.80;91.60;;;;;;6174241;28;20065;-82
2021/08/26 08:23:09;;;;;;;9.25;7.28;;;27.80;74.30;;;;;;6174250;28;20193;-80
2021/08/26 08:26:11;;;;;;;8.80;7.00;;;27.40;72.10;;;;;;6141253;28;20038;-84
2021/08/26 08:29:11;;;;;;;8.10;6.88;;;27.20;71.70;;;;;;6174549;28;20019;-80
2021/08/26 08:32:12;;;;;;;9.07;6.77;;;27.40;72.70;;;;;;6156939;28;20030;-84
2021/08/26 08:35:13;;;;;;;8.57;6.83;;;;;;;;;;6174457;28;20027;-81
2021/08/26 08:38:13;;;;;;;8.97;7.57;;;27.90;69.40;;;;;;6174130;28;20055;-85
2021/08/26 08:41:18;;;;;;;9.70;7.03;;;27.90;70.70;;;;;;6157003;28;20106;-80
2021/08/26 08:44:19;;;;;;;9.50;6.75;;;27.10;71.70;;;;;;6159424;28;20074;-80
2021/08/26 08:47:19;;;;;;;9.63;6.97;;;26.70;74.00;;;;;;6161277;28;20045;-82
2021/08/26 08:50:22;;;;;;;10.97;6.93;;;25.90;77.80;;;;;;6161639;28;20397;-81
2021/08/26 08:53:23;;;;;;;7.47;6.60;;;25.30;79.90;;;;;;6145229;28;20086;-86
2021/08/26 08:56:26;;;;;;;12.23;7.53;;;24.80;81.30;;;;;;6161041;28;20023;-80
2021/08/26 08:59:29;;;;;;;8.52;6.28;;;24.20;80.80;;;;;;6178330;28;20022;-80
2021/08/26 09:02:29;;;;;;;9.52;6.88;;;23.60;82.70;;;;;;6160802;28;20038;-79
2021/08/26 09:05:52;;;;;;;8.70;6.07;;;23.30;85.00;;;;;;6177938;28;20112;-82
2021/08/26 09:09:04;;;;;;;7.97;6.13;;;23.30;82.70;;;;;;6177828;28;20461;-81
2021/08/26 09:12:05;;;;;;;7.78;6.30;;;23.50;86.70;;;;;;6160718;28;20034;-78
2021/08/26 09:15:13;;;;;;;8.40;6.78;;;25.40;93.90;;;;;;6177635;28;20035;-83
2021/08/26 09:18:15;;;;;;;8.13;6.85;;;25.30;79.70;;;;;;6177922;28;20516;-80
2021/08/26 09:21:16;;;;;;;7.72;5.70;;;26.40;78.90;;;;;;6177828;28;20030;-83
2021/08/26 09:24:17;;;;;;;11.00;6.73;;;27.00;76.30;;;;;;6160167;28;20042;-80
2021/08/26 09:27:47;;;;;;;9.23;6.63;;;27.90;72.50;;;;;;6160296;28;20030;-83
2021/08/26 09:30:47;;;;;;;8.07;6.43;;;28.50;69.90;;;;;;6103256;29;20046;-82
2021/08/26 09:33:51;;;;;;;8.63;7.07;;;28.40;69.20;;;;;;6103419;29;20044;-81
2021/08/26 09:40:55;;;;;;;8.07;6.05;;;27.70;68.20;;;;;;6080401;29;20181;-80
2021/08/26 09:44:04;;;;;;;13.33;7.33;;;27.00;70.70;;;;;;6063993;29;20072;-80
2021/08/26 09:47:06;;;;;;;9.65;6.70;;;26.70;70.10;;;;;;6064363;29;20056;-80
2021/08/26 09:50:07;;;;;;;8.65;6.75;;;26.40;69.90;;;;;;6063813;29;20088;-85
2021/08/26 09:53:07;;;;;;;8.83;6.50;;;26.00;69.70;;;;;;6079566;29;20395;-80
2021/08/26 09:56:08;;;;;;;10.77;5.93;;;25.80;72.30;;;;;;6063793;29;20024;-79
2021/08/26 09:59:09;;;;;;;8.70;6.77;;;25.50;73.50;;;;;;6063697;29;20494;-79
2021/08/26 10:02:10;;;;;;;8.37;6.10;;;25.20;74.10;;;;;;6063578;29;20087;-80
2021/08/26 10:05:10;;;;;;;9.63;6.25;;;24.90;75.10;;;;;;6063574;29;20044;-80
2021/08/26 10:08:12;;;;;;;9.03;6.60;;;24.70;75.90;;;;;;6122778;29;20039;-80
2021/08/26 10:11:18;;;;;;;7.77;6.10;;;24.60;75.40;;;;;;6128615;29;20058;-80
2021/08/26 10:14:18;;;;;;;8.50;6.78;;;25.00;76.10;;;;;;6127741;29;20266;-84
2021/08/26 10:17:20;;;;;;;8.13;6.83;;;24.80;74.80;;;;;;6127663;29;20028;-79
2021/08/26 10:20:21;;;;;;;8.63;6.63;;;24.50;75.70;;;;;;6127503;29;20366;-82
2021/08/26 10:23:22;;;;;;;11.52;7.22;;;24.10;77.40;;;;;;6128509;29;20024;-80
2021/08/26 10:26:22;;;;;;;11.10;6.93;;;23.90;77.00;;;;;;6127387;29;20099;-81
2021/08/26 10:29:23;;;;;;;9.07;6.90;;;23.30;92.50;;;;;;6127288;29;20023;-81
2021/08/26 10:32:25;;;;;;;10.43;7.03;;;23.30;79.80;;;;;;6111143;29;20560;-83
2021/08/26 10:35:25;;;;;;;10.13;6.90;;;23.10;81.40;;;;;;6128201;29;20471;-79
2021/08/26 10:38:30;;;;;;;11.65;7.80;;;23.00;81.20;;;;;;6136704;28;20047;-83
2021/08/26 10:41:31;;;;;;;11.73;8.55;;;22.90;80.30;;;;;;6158465;28;20061;-84
2021/08/26 10:45:10;;;;;;;12.68;7.72;;;22.80;81.90;;;;;;6175803;28;20034;-84
2021/08/26 10:48:12;;;;;;;11.10;7.45;;;22.70;83.10;;;;;;6175896;28;20361;-83
2021/08/26 10:51:16;;;;;;;9.60;7.60;;;22.70;85.10;;;;;;6174124;28;20098;-80
2021/08/26 10:54:26;;;;;;;11.98;7.70;;;22.80;84.70;;;;;;6158295;28;20023;-80
2021/08/26 10:57:28;;;;;;;8.88;7.15;;;22.70;85.10;;;;;;6142024;28;20093;-80
2021/08/26 11:00:42;;;;;;;9.90;7.38;;;22.70;85.20;;;;;;6158382;28;20042;-81
2021/08/26 11:03:45;;;;;;;13.80;9.70;;;22.90;86.50;;;;;;6158165;28;20106;-80
2021/08/26 11:06:46;;;;;;;8.30;7.07;;;22.90;86.70;;;;;;6175086;28;20462;-84
2021/08/26 11:09:46;;;;;;;8.80;7.20;;;23.00;87.60;;;;;;6158151;28;20031;-79
2021/08/26 11:12:47;;;;;;;12.70;7.10;;;23.10;87.30;;;;;;6141750;28;20025;-79
2021/08/26 11:15:48;;;;;;;8.55;6.47;;;23.20;87.00;;;;;;6158130;28;20027;-80
2021/08/26 11:18:48;;;;;;;10.77;7.30;;;23.10;86.40;;;;;;6157798;28;20472;-84
2021/08/26 11:21:50;;;;;;;12.00;7.60;;;23.20;85.40;;;;;;6158059;28;20029;-80
2021/08/26 11:24:52;;;;;;;9.73;8.40;;;23.10;85.90;;;;;;6175097;28;20030;-86
2021/08/26 11:27:53;;;;;;;11.65;7.50;;;;;;;;;;6175077;28;20026;-85
2021/08/26 11:30:53;;;;;;;11.30;7.15;;;22.60;85.60;;;;;;6157889;28;20050;-84
2021/08/26 11:33:54;;;;;;;10.45;7.65;;;22.40;90.00;;;;;;6157483;28;20021;-84
2021/08/26 11:37:01;;;;;;;12.32;8.18;;;22.30;89.20;;;;;;6174729;28;20034;-83
2021/08/26 11:40:07;;;;;;;11.93;7.72;;;22.10;88.10;;;;;;6174838;28;20038;-80
2021/08/26 11:43:07;;;;;;;11.02;8.68;;;22.00;90.30;;;;;;6174806;28;20073;-79
2021/08/26 11:46:15;;;;;;;11.48;8.40;;;21.80;91.50;;;;;;6157667;28;20413;-81
2021/08/26 11:49:16;;;;;;;11.32;8.45;;;21.40;91.60;;;;;;6174617;28;20022;-79
2021/08/26 11:52:16;;;;;;;12.65;8.18;;;21.30;91.80;;;;;;6157215;28;20039;-85
2021/08/26 11:55:17;;;;;;;11.05;8.32;;;;;;;;;;6174554;28;20018;-79
2021/08/26 11:58:18;;;;;;;10.13;8.27;;;21.20;90.40;;;;;;6157444;28;20031;-82
2021/08/26 12:01:23;;;;;;;12.73;7.97;;;21.30;92.10;;;;;;6174258;28;20112;-80
2021/08/26 12:04:34;;;;;;;10.38;8.02;;;21.20;92.20;;;;;;6174303;28;20125;-85
2021/08/26 12:07:36;;;;;;;12.82;8.48;;;21.10;92.70;;;;;;6174465;28;20458;-79
2021/08/26 12:10:44;;;;;;;14.85;7.97;;;20.90;92.30;;;;;;6157431;28;20478;-82
2021/08/26 12:13:44;;;;;;;12.65;8.77;;;21.00;91.50;;;;;;6158288;28;20019;-82
2021/08/26 12:16:45;;;;;;;11.68;9.25;;;20.90;93.00;;;;;;6157029;28;20035;-81
2021/08/26 12:19:47;;;;;;;10.63;8.02;;;20.80;93.00;;;;;;6178264;28;20098;-80
2021/08/26 12:22:49;;;;;;;11.40;8.23;;;20.70;93.30;;;;;;6161955;28;20515;-86
2021/08/26 12:26:09;;;;;;;10.40;8.73;;;20.60;94.00;;;;;;6161910;28;20468;-83
2021/08/26 12:29:10;;;;;;;10.32;8.38;;;;;;;;;;6179088;28;20281;-79
2021/08/26 12:32:28;;;;;;;11.77;8.63;;;20.50;93.10;;;;;;6178699;28;20460;-80
2021/08/26 12:35:29;;;;;;;16.27;9.20;;;20.50;93.70;;;;;;6178518;28;20018;-80
2021/08/26 12:38:41;;;;;;;11.73;8.80;;;20.30;93.60;;;;;;6161393;28;20059;-81
2021/08/26 12:41:42;;;;;;;15.05;9.32;;;20.20;93.80;;;;;;6145422;28;20089;-81
2021/08/26 12:44:43;;;;;;;12.82;8.82;;;20.10;95.80;;;;;;6161504;28;20035;-82
2021/08/26 12:47:44;;;;;;;12.03;9.10;;;;;;;;;;6161306;28;20029;-79
2021/08/26 12:50:45;;;;;;;12.77;9.85;;;;;;;;;;6179342;28;20026;-81
2021/08/26 12:53:47;;;;;;;15.75;10.48;;;19.80;96.80;;;;;;6178144;28;20074;-82
2021/08/26 12:56:54;;;;;;;13.30;9.85;;;19.60;97.90;;;;;;6177330;28;20030;-79
2021/08/26 12:59:54;;;;;;;13.70;9.43;;;18.70;99.90;;;;;;6178035;28;20034;-79
2021/08/26 13:02:57;;;;;;;11.60;9.88;;;18.90;99.90;;;;;;6160796;28;20023;-79
2021/08/26 13:05:58;;;;;;;15.63;10.57;;;18.50;99.90;;;;;;6178089;28;20062;-81
2021/08/26 13:08:58;;;;;;;10.68;9.23;;;18.20;99.90;;;;;;6160551;28;20046;-79
2021/08/26 13:12:17;;;;;;;11.77;9.63;;;17.90;99.90;;;;;;6160635;28;20022;-79
2021/08/26 13:15:18;;;;;;;10.82;8.98;;;17.80;99.90;;;;;;6178022;28;20019;-82
2021/08/26 13:18:19;;;;;;;9.77;8.25;;;17.70;99.90;;;;;;6177907;28;20097;-79
2021/08/26 13:21:19;;;;;;;10.85;6.90;;;17.60;99.90;;;;;;6160260;28;20106;-79
2021/08/26 13:24:20;;;;;;;8.93;6.07;;;17.60;99.90;;;;;;6160041;28;20046;-80
2021/08/26 13:27:22;;;;;;;5.75;5.03;;;17.60;99.90;;;;;;6177488;28;20033;-79
2021/08/26 13:30:22;;;;;;;5.15;3.60;;;17.80;99.90;;;;;;6160198;28;20365;-81
2021/08/26 13:33:24;;;;;;;3.78;2.70;;;17.40;99.90;;;;;;6160033;28;20034;-83
2021/08/26 13:36:25;;;;;;;3.33;2.67;;;17.50;99.90;;;;;;6177422;28;20022;-78
2021/08/26 13:39:25;;;;;;;3.20;2.50;;;17.40;99.90;;;;;;6177399;28;20049;-82
2021/08/26 13:42:26;;;;;;;2.85;2.53;;;17.40;99.90;;;;;;6177051;28;20114;-81
2021/08/26 13:45:27;;;;;;;2.25;2.05;;;17.30;99.90;;;;;;6177105;28;20038;-82
2021/08/26 13:48:27;;;;;;;2.42;2.00;;;17.40;99.90;;;;;;6176896;28;20055;-83
2021/08/26 13:51:28;;;;;;;1.65;1.55;;;17.20;99.90;;;;;;6177331;28;20058;-79
2021/08/26 13:54:29;;;;;;;1.52;1.42;;;17.20;99.90;;;;;;6159606;28;20027;-82
2021/08/26 13:57:29;;;;;;;2.10;1.88;;;17.40;99.90;;;;;;6176931;28;20093;-83
2021/08/26 14:00:30;;;;;;;1.50;1.40;;;17.20;99.90;;;;;;6159263;28;20031;-79
2021/08/26 14:03:30;;;;;;;1.95;1.23;;;16.90;99.90;;;;;;6176315;28;20045;-83
2021/08/26 14:06:31;;;;;;;2.58;1.25;;;17.00;99.90;;;;;;6176684;28;20472;-79
2021/08/26 14:09:32;;;;;;;1.50;1.40;;;;;;;;;;6159570;28;20365;-84
2021/08/26 14:12:33;;;;;;;1.77;1.65;;;17.10;99.90;;;;;;6176612;28;20054;-81
2021/08/26 14:15:34;;;;;;;2.95;2.03;;;;;;;;;;6176220;28;20023;-79
2021/08/26 14:18:35;;;;;;;1.85;1.75;;;17.10;99.90;;;;;;6176481;28;20022;-79
2021/08/26 14:21:35;;;;;;;2.13;1.88;;;17.20;99.90;;;;;;6158777;28;20066;-83
2021/08/26 14:24:36;;;;;;;2.20;2.00;;;16.90;99.90;;;;;;6175991;28;20347;-79
2021/08/26 14:27:37;;;;;;;1.90;1.80;;;16.80;99.90;;;;;;6176389;28;20061;-79
2021/08/26 14:30:37;;;;;;;2.33;1.80;;;16.80;99.90;;;;;;6175832;28;20078;-79
2021/08/26 14:33:38;;;;;;;3.25;2.08;;;16.50;99.90;;;;;;6158838;28;20472;-79
2021/08/26 14:45:07;;;;;;;2.38;2.15;;;15.20;99.90;;;;;;6108178;28;20397;-82
2021/08/26 14:52:19;;;;;;;3.45;2.30;;;16.30;99.90;;;;;;6138281;28;20031;-78
2021/08/26 14:55:20;;;;;;;2.85;2.22;;;16.60;99.90;;;;;;6135743;28;20441;-83
2021/08/26 14:59:28;;;;;;;;;;;;;;;;;;;;;
2021/08/26 15:02:28;;;;;;;2.80;2.50;;;19.90;99.90;;;;;;6131378;28;20525;-79
2021/08/26 15:05:29;;;;;;;2.92;2.63;;;17.20;99.90;;;;;;6149986;28;20066;-81
2021/08/26 15:08:30;;;;;;;3.17;2.83;;;17.10;99.90;;;;;;6149856;29;20026;-79
2021/08/26 15:11:30;;;;;;;4.25;2.70;;;17.00;99.90;;;;;;6151267;29;20027;-83
2021/08/26 15:14:31;;;;;;;2.47;2.28;;;17.00;99.90;;;;;;6151332;29;20023;-79
2021/08/26 15:17:32;;;;;;;3.00;2.70;;;17.10;99.90;;;;;;6151362;28;20036;-82
2021/08/26 15:20:33;;;;;;;3.30;3.00;;;17.00;99.90;;;;;;6150869;29;20469;-82
2021/08/26 15:23:34;;;;;;;3.75;2.67;;;17.30;99.90;;;;;;6149887;28;20042;-81
2021/08/26 15:26:34;;;;;;;2.60;2.40;;;17.20;99.90;;;;;;6151192;29;20042;-80
2021/08/26 15:29:35;;;;;;;3.15;2.75;;;17.50;99.90;;;;;;6151161;29;20023;-83
2021/08/26 15:32:38;;;;;;;2.92;2.60;;;17.50;99.90;;;;;;6150947;28;20446;-79
2021/08/26 15:35:39;;;;;;;3.05;2.58;;;17.60;99.90;;;;;;6151088;28;20023;-81
2021/08/26 15:38:39;;;;;;;3.28;2.65;;;17.70;99.90;;;;;;6153001;28;20485;-81
2021/08/26 15:41:41;;;;;;;2.38;2.17;;;17.70;99.90;;;;;;6174974;28;20030;-79
2021/08/26 15:44:41;;;;;;;3.25;2.90;;;18.00;99.90;;;;;;6141199;28;20034;-80
2021/08/26 15:47:44;;;;;;;2.58;2.38;;;18.30;99.90;;;;;;6174484;28;20035;-86
2021/08/26 15:50:45;;;;;;;2.42;2.22;;;18.70;99.90;;;;;;6157974;28;20334;-80
2021/08/26 15:53:54;;;;;;;2.58;2.30;;;19.10;99.90;;;;;;6145399;28;20023;-85
2021/08/26 16:03:24;;;;;;;2.58;2.38;;;18.80;99.90;;;;;;6128753;29;20383;-81
2021/08/26 16:06:25;;;;;;;2.35;2.13;;;18.70;99.90;;;;;;6128780;29;20039;-82
2021/08/26 16:09:26;;;;;;;4.68;2.83;;;18.50;99.90;;;;;;6129274;29;20032;-79
2021/08/26 16:12:26;;;;;;;4.18;2.72;;;18.60;99.90;;;;;;6129746;29;20067;-84
2021/08/26 16:15:27;;;;;;;3.08;2.78;;;18.70;99.90;;;;;;6129271;29;20110;-79
2021/08/26 16:18:28;;;;;;;3.17;2.50;;;18.70;99.90;;;;;;6129429;29;20119;-80